DLH404 EDDF-KJFK
Flight info
| Callsign | DLH404 |
|---|---|
| Flight time | N/A |
| Altitude | 38000 |
| Route | OBOKA3M OBOKA Z28 DIBIR DCT BUDIP DCT RAVLO Y70 OTBED L60 PENIL M144 BAGSO DCT NEBIN/M082F390 NATD SAXAN/N0462F400 N550A TOPPS DCT ENE PARCH4 |
| Aircraft | A346/H-SDE2E3FGHIJ3J4J5M1P2RWXYZ/LB1D1 |
Departure
| Time | 2026-04-18 09:00 |
|---|---|
| Airport | Frankfurt Main Airport (EDDF) |
Arrival
| Time | N/A |
|---|---|
| Airport | John F. Kennedy International Airport (KJFK) |
| Time | Latitude | Longitude | Altitude | Speed | Heading |
|---|---|---|---|---|---|
| 2026-04-18 08:19 | 50.04686 | 8.56167 | 362 ft | 0 kts | 340° |
| 2026-04-18 08:44 | 50.04685 | 8.56168 | 354 ft | 1 kts | 339° |
| 2026-04-18 08:44 | 50.04670 | 8.56177 | 363 ft | 3 kts | 339° |
| 2026-04-18 08:44 | 50.04652 | 8.56188 | 363 ft | 2 kts | 339° |
| 2026-04-18 08:45 | 50.04637 | 8.56197 | 363 ft | 3 kts | 328° |
| 2026-04-18 08:45 | 50.04626 | 8.56212 | 363 ft | 3 kts | 304° |
| 2026-04-18 08:45 | 50.04620 | 8.56229 | 361 ft | 3 kts | 274° |
| 2026-04-18 08:45 | 50.04622 | 8.56254 | 360 ft | 3 kts | 252° |
| 2026-04-18 08:46 | 50.04629 | 8.56283 | 361 ft | 3 kts | 248° |
| 2026-04-18 08:46 | 50.04634 | 8.56301 | 359 ft | 0 kts | 250° |
| 2026-04-18 08:46 | 50.04634 | 8.56302 | 359 ft | 0 kts | 250° |
| 2026-04-18 08:49 | 50.04634 | 8.56300 | 359 ft | 1 kts | 250° |
| 2026-04-18 08:49 | 50.04629 | 8.56281 | 363 ft | 0 kts | 250° |
| 2026-04-18 08:49 | 50.04624 | 8.56257 | 359 ft | 6 kts | 250° |
| 2026-04-18 08:49 | 50.04601 | 8.56162 | 358 ft | 12 kts | 250° |
| 2026-04-18 08:50 | 50.04570 | 8.56030 | 361 ft | 11 kts | 250° |
| 2026-04-18 08:50 | 50.04512 | 8.55949 | 360 ft | 13 kts | 197° |
| 2026-04-18 08:50 | 50.04427 | 8.55914 | 360 ft | 12 kts | 188° |
| 2026-04-18 08:50 | 50.04347 | 8.55928 | 359 ft | 6 kts | 162° |
| 2026-04-18 08:51 | 50.04339 | 8.55932 | 358 ft | 0 kts | 159° |
| 2026-04-18 08:51 | 50.04338 | 8.55932 | 358 ft | 1 kts | 159° |
| 2026-04-18 08:51 | 50.04329 | 8.55938 | 361 ft | 3 kts | 159° |
| 2026-04-18 08:51 | 50.04298 | 8.55955 | 359 ft | 7 kts | 161° |
| 2026-04-18 08:52 | 50.04248 | 8.55947 | 357 ft | 7 kts | 218° |
| 2026-04-18 08:52 | 50.04244 | 8.55938 | 362 ft | 0 kts | 230° |
| 2026-04-18 08:52 | 50.04242 | 8.55935 | 362 ft | 0 kts | 226° |
| 2026-04-18 08:52 | 50.04241 | 8.55934 | 362 ft | 0 kts | 226° |
| 2026-04-18 08:53 | 50.04231 | 8.55921 | 362 ft | 4 kts | 213° |
| 2026-04-18 08:53 | 50.04198 | 8.55914 | 361 ft | 6 kts | 168° |
| 2026-04-18 08:53 | 50.04165 | 8.55934 | 362 ft | 1 kts | 157° |
| 2026-04-18 08:53 | 50.04144 | 8.55947 | 354 ft | 0 kts | 157° |
| 2026-04-18 08:54 | 50.04143 | 8.55948 | 354 ft | 0 kts | 157° |
| 2026-04-18 08:54 | 50.04141 | 8.55949 | 361 ft | 0 kts | 157° |
| 2026-04-18 08:54 | 50.04134 | 8.55954 | 361 ft | 2 kts | 157° |
| 2026-04-18 08:54 | 50.04109 | 8.55970 | 361 ft | 5 kts | 157° |
| 2026-04-18 08:55 | 50.04076 | 8.56004 | 362 ft | 5 kts | 117° |
| 2026-04-18 08:55 | 50.04078 | 8.56071 | 359 ft | 8 kts | 74° |
| 2026-04-18 08:55 | 50.04104 | 8.56180 | 360 ft | 14 kts | 70° |
| 2026-04-18 08:55 | 50.04145 | 8.56355 | 362 ft | 19 kts | 69° |
| 2026-04-18 08:56 | 50.04195 | 8.56564 | 355 ft | 21 kts | 69° |
| 2026-04-18 08:56 | 50.04246 | 8.56775 | 362 ft | 20 kts | 69° |
| 2026-04-18 08:56 | 50.04298 | 8.56994 | 361 ft | 22 kts | 69° |
| 2026-04-18 08:56 | 50.04354 | 8.57229 | 357 ft | 24 kts | 70° |
| 2026-04-18 08:57 | 50.04476 | 8.57742 | 361 ft | 26 kts | 69° |
| 2026-04-18 08:57 | 50.04543 | 8.58020 | 361 ft | 27 kts | 69° |
| 2026-04-18 08:57 | 50.04610 | 8.58300 | 362 ft | 28 kts | 70° |
| 2026-04-18 08:58 | 50.04648 | 8.58460 | 361 ft | 9 kts | 70° |
| 2026-04-18 08:58 | 50.04641 | 8.58553 | 361 ft | 10 kts | 136° |
| 2026-04-18 08:58 | 50.04568 | 8.58604 | 362 ft | 13 kts | 161° |
| 2026-04-18 08:58 | 50.04489 | 8.58584 | 362 ft | 14 kts | 237° |
| 2026-04-18 08:59 | 50.04470 | 8.58516 | 361 ft | 1 kts | 249° |
| 2026-04-18 08:59 | 50.04467 | 8.58506 | 360 ft | 2 kts | 249° |
| 2026-04-18 08:59 | 50.04464 | 8.58493 | 359 ft | 8 kts | 249° |
| 2026-04-18 08:59 | 50.04342 | 8.57984 | 358 ft | 92 kts | 250° |
| 2026-04-18 09:00 | 50.04026 | 8.56656 | 359 ft | 165 kts | 249° |
| 2026-04-18 09:00 | 50.03542 | 8.54700 | 504 ft | 210 kts | 250° |
| 2026-04-18 09:00 | 50.03020 | 8.52623 | 1527 ft | 202 kts | 250° |
| 2026-04-18 09:00 | 50.02426 | 8.50485 | 2595 ft | 194 kts | 236° |
| 2026-04-18 09:01 | 50.01129 | 8.49020 | 3267 ft | 208 kts | 198° |
| 2026-04-18 09:01 | 49.99725 | 8.48456 | 4014 ft | 209 kts | 195° |
| 2026-04-18 09:01 | 49.98309 | 8.47925 | 4830 ft | 208 kts | 195° |
| 2026-04-18 09:01 | 49.96905 | 8.47383 | 5593 ft | 208 kts | 195° |
| 2026-04-18 09:02 | 49.95498 | 8.46805 | 6289 ft | 212 kts | 197° |
| 2026-04-18 09:02 | 49.94037 | 8.46144 | 6728 ft | 227 kts | 197° |
| 2026-04-18 09:02 | 49.92470 | 8.45379 | 7080 ft | 245 kts | 205° |
| 2026-04-18 09:02 | 49.91072 | 8.43833 | 7690 ft | 251 kts | 230° |
| 2026-04-18 09:03 | 49.90101 | 8.41595 | 8525 ft | 251 kts | 238° |
| 2026-04-18 09:03 | 49.89186 | 8.39166 | 9345 ft | 254 kts | 243° |
| 2026-04-18 09:03 | 49.88627 | 8.36548 | 10064 ft | 259 kts | 262° |
| 2026-04-18 09:03 | 49.88603 | 8.33693 | 10551 ft | 273 kts | 274° |
| 2026-04-18 09:04 | 49.88775 | 8.30662 | 10936 ft | 290 kts | 275° |
| 2026-04-18 09:04 | 49.89149 | 8.27488 | 11258 ft | 309 kts | 287° |
| 2026-04-18 09:04 | 49.90052 | 8.24353 | 11595 ft | 328 kts | 301° |
| 2026-04-18 09:04 | 49.91405 | 8.21381 | 11946 ft | 346 kts | 306° |
| 2026-04-18 09:05 | 49.92927 | 8.18372 | 12274 ft | 363 kts | 309° |
| 2026-04-18 09:05 | 49.94653 | 8.15419 | 12786 ft | 374 kts | 313° |
| 2026-04-18 09:05 | 49.96532 | 8.12684 | 13621 ft | 375 kts | 317° |
| 2026-04-18 09:05 | 49.98511 | 8.10034 | 14463 ft | 376 kts | 317° |
| 2026-04-18 09:06 | 50.00512 | 8.07383 | 15175 ft | 379 kts | 317° |
| 2026-04-18 09:06 | 50.02527 | 8.04706 | 15818 ft | 383 kts | 317° |
| 2026-04-18 09:06 | 50.04566 | 8.01988 | 16499 ft | 387 kts | 317° |
| 2026-04-18 09:06 | 50.06612 | 7.99252 | 17172 ft | 390 kts | 317° |
| 2026-04-18 09:07 | 50.08681 | 7.96480 | 17817 ft | 394 kts | 317° |
| 2026-04-18 09:07 | 50.10769 | 7.93676 | 18485 ft | 398 kts | 317° |
| 2026-04-18 09:07 | 50.12876 | 7.90839 | 19057 ft | 402 kts | 317° |
| 2026-04-18 09:07 | 50.14974 | 7.88010 | 19610 ft | 406 kts | 317° |
| 2026-04-18 09:08 | 50.17118 | 7.85118 | 20160 ft | 410 kts | 317° |
| 2026-04-18 09:08 | 50.19284 | 7.82191 | 20717 ft | 414 kts | 317° |
| 2026-04-18 09:08 | 50.21474 | 7.79233 | 21252 ft | 418 kts | 316° |
| 2026-04-18 09:08 | 50.23732 | 7.76335 | 21807 ft | 423 kts | 320° |
| 2026-04-18 09:09 | 50.26186 | 7.73737 | 22356 ft | 429 kts | 326° |
| 2026-04-18 09:09 | 50.28825 | 7.71498 | 22904 ft | 434 kts | 331° |
| 2026-04-18 09:09 | 50.31588 | 7.69534 | 23424 ft | 439 kts | 333° |
| 2026-04-18 09:09 | 50.34401 | 7.67630 | 23918 ft | 442 kts | 333° |
| 2026-04-18 09:10 | 50.37196 | 7.65747 | 24357 ft | 445 kts | 333° |
| 2026-04-18 09:10 | 50.40051 | 7.63804 | 24793 ft | 448 kts | 333° |
| 2026-04-18 09:10 | 50.42915 | 7.61843 | 25206 ft | 450 kts | 333° |
| 2026-04-18 09:10 | 50.45797 | 7.59860 | 25603 ft | 454 kts | 333° |
| 2026-04-18 09:11 | 50.48695 | 7.57861 | 26047 ft | 456 kts | 333° |
| 2026-04-18 09:11 | 50.51609 | 7.55847 | 26464 ft | 459 kts | 332° |
| 2026-04-18 09:11 | 50.54496 | 7.53676 | 26894 ft | 460 kts | 329° |
| 2026-04-18 09:11 | 50.57309 | 7.51268 | 27332 ft | 461 kts | 326° |
| 2026-04-18 09:12 | 50.60044 | 7.48631 | 27768 ft | 463 kts | 324° |
| 2026-04-18 09:12 | 50.62718 | 7.45917 | 28250 ft | 464 kts | 323° |
| 2026-04-18 09:12 | 50.65416 | 7.43146 | 28855 ft | 462 kts | 323° |
| 2026-04-18 09:12 | 50.68097 | 7.40367 | 29510 ft | 459 kts | 322° |
| 2026-04-18 09:13 | 50.70665 | 7.37394 | 30130 ft | 455 kts | 317° |
| 2026-04-18 09:13 | 50.73065 | 7.34175 | 30656 ft | 452 kts | 313° |
| 2026-04-18 09:13 | 50.75305 | 7.30705 | 31154 ft | 448 kts | 309° |
| 2026-04-18 09:13 | 50.77362 | 7.27039 | 31648 ft | 445 kts | 306° |
| 2026-04-18 09:14 | 50.79248 | 7.23165 | 32155 ft | 442 kts | 302° |
| 2026-04-18 09:14 | 50.81026 | 7.19220 | 32668 ft | 440 kts | 301° |
| 2026-04-18 09:14 | 50.82763 | 7.15298 | 33128 ft | 439 kts | 301° |
| 2026-04-18 09:14 | 50.84518 | 7.11328 | 33589 ft | 439 kts | 301° |
| 2026-04-18 09:15 | 50.86268 | 7.07378 | 34056 ft | 438 kts | 301° |
| 2026-04-18 09:15 | 50.88021 | 7.03431 | 34497 ft | 437 kts | 300° |
| 2026-04-18 09:15 | 50.89763 | 6.99506 | 34876 ft | 437 kts | 300° |
| 2026-04-18 09:15 | 50.91505 | 6.95568 | 35241 ft | 436 kts | 300° |
| 2026-04-18 09:16 | 50.93244 | 6.91630 | 35615 ft | 435 kts | 300° |
| 2026-04-18 09:16 | 50.94979 | 6.87699 | 35984 ft | 434 kts | 300° |
| 2026-04-18 09:16 | 50.96703 | 6.83786 | 36345 ft | 432 kts | 300° |
| 2026-04-18 09:16 | 50.98402 | 6.79925 | 36670 ft | 432 kts | 300° |
| 2026-04-18 09:17 | 51.00120 | 6.76014 | 36924 ft | 433 kts | 300° |
| 2026-04-18 09:17 | 51.01846 | 6.72079 | 37156 ft | 434 kts | 300° |
| 2026-04-18 09:17 | 51.03575 | 6.68133 | 37383 ft | 435 kts | 300° |
| 2026-04-18 09:17 | 51.05303 | 6.64182 | 37611 ft | 436 kts | 300° |
| 2026-04-18 09:18 | 51.07037 | 6.60217 | 37840 ft | 437 kts | 299° |
| 2026-04-18 09:18 | 51.08777 | 6.56227 | 37957 ft | 440 kts | 299° |
| 2026-04-18 09:18 | 51.10522 | 6.52214 | 38121 ft | 441 kts | 299° |
| 2026-04-18 09:18 | 51.12274 | 6.48179 | 38198 ft | 442 kts | 299° |
| 2026-04-18 09:19 | 51.15748 | 6.40167 | 38214 ft | 442 kts | 299° |
| 2026-04-18 09:19 | 51.19247 | 6.32074 | 38218 ft | 443 kts | 299° |
| 2026-04-18 09:20 | 51.22743 | 6.23962 | 38209 ft | 443 kts | 299° |
| 2026-04-18 09:20 | 51.26237 | 6.15827 | 38212 ft | 444 kts | 299° |
| 2026-04-18 09:21 | 51.29661 | 6.07701 | 38204 ft | 443 kts | 298° |
| 2026-04-18 09:21 | 51.33025 | 5.99438 | 38204 ft | 443 kts | 297° |
| 2026-04-18 09:22 | 51.36451 | 5.91218 | 38202 ft | 445 kts | 300° |
| 2026-04-18 09:22 | 51.40334 | 5.83427 | 38203 ft | 450 kts | 306° |
| 2026-04-18 09:23 | 51.44619 | 5.76077 | 38242 ft | 451 kts | 308° |
| 2026-04-18 09:23 | 51.48926 | 5.68827 | 38214 ft | 452 kts | 307° |
| 2026-04-18 09:24 | 51.53257 | 5.61504 | 38208 ft | 452 kts | 307° |
| 2026-04-18 09:24 | 51.57577 | 5.54170 | 38209 ft | 452 kts | 307° |
| 2026-04-18 09:25 | 51.61895 | 5.46816 | 38204 ft | 451 kts | 307° |
| 2026-04-18 09:25 | 51.66177 | 5.39500 | 38209 ft | 451 kts | 307° |
| 2026-04-18 09:26 | 51.70480 | 5.32123 | 38241 ft | 452 kts | 307° |
| 2026-04-18 09:26 | 51.74792 | 5.24712 | 38211 ft | 453 kts | 307° |
| 2026-04-18 09:27 | 51.79119 | 5.17253 | 38202 ft | 453 kts | 307° |
| 2026-04-18 09:27 | 51.83535 | 5.09613 | 38205 ft | 453 kts | 307° |
| 2026-04-18 09:28 | 51.87839 | 5.02149 | 38202 ft | 453 kts | 307° |
| 2026-04-18 09:28 | 51.92132 | 4.94678 | 38198 ft | 453 kts | 307° |
| 2026-04-18 09:29 | 51.96422 | 4.87190 | 38225 ft | 453 kts | 307° |
| 2026-04-18 09:29 | 52.00719 | 4.79667 | 38199 ft | 455 kts | 307° |
| 2026-04-18 09:30 | 52.05144 | 4.71899 | 38194 ft | 455 kts | 307° |
| 2026-04-18 09:30 | 52.09445 | 4.64325 | 38196 ft | 455 kts | 307° |
| 2026-04-18 09:31 | 52.13740 | 4.56737 | 38188 ft | 455 kts | 307° |
| 2026-04-18 09:31 | 52.18029 | 4.49137 | 38198 ft | 455 kts | 307° |
| 2026-04-18 09:32 | 52.22284 | 4.41571 | 38207 ft | 455 kts | 307° |
| 2026-04-18 09:32 | 52.26563 | 4.33942 | 38192 ft | 456 kts | 307° |
| 2026-04-18 09:33 | 52.30843 | 4.26288 | 38189 ft | 456 kts | 307° |
| 2026-04-18 09:33 | 52.35113 | 4.18629 | 38208 ft | 455 kts | 307° |
| 2026-04-18 09:34 | 52.39379 | 4.10952 | 38201 ft | 455 kts | 306° |
| 2026-04-18 09:34 | 52.43611 | 4.03314 | 38213 ft | 455 kts | 306° |
| 2026-04-18 09:35 | 52.47861 | 3.95615 | 38230 ft | 456 kts | 306° |
| 2026-04-18 09:35 | 52.52127 | 3.87866 | 38211 ft | 457 kts | 306° |
| 2026-04-18 09:36 | 52.56387 | 3.80106 | 38208 ft | 457 kts | 306° |
| 2026-04-18 09:36 | 52.60619 | 3.72372 | 38201 ft | 457 kts | 306° |
| 2026-04-18 09:37 | 52.64867 | 3.64583 | 38199 ft | 457 kts | 306° |
| 2026-04-18 09:37 | 52.69116 | 3.56770 | 38198 ft | 457 kts | 306° |
| 2026-04-18 09:38 | 52.73357 | 3.48939 | 38220 ft | 458 kts | 306° |
| 2026-04-18 09:38 | 52.77577 | 3.41130 | 38202 ft | 459 kts | 306° |
| 2026-04-18 09:39 | 52.81826 | 3.33245 | 38189 ft | 459 kts | 306° |
| 2026-04-18 09:39 | 52.86026 | 3.25279 | 38181 ft | 457 kts | 303° |
| 2026-04-18 09:40 | 52.89563 | 3.16630 | 38182 ft | 451 kts | 294° |
| 2026-04-18 09:40 | 52.92221 | 3.07284 | 38178 ft | 445 kts | 286° |
| 2026-04-18 09:41 | 52.93963 | 2.97589 | 38196 ft | 441 kts | 279° |
| 2026-04-18 09:41 | 52.95275 | 2.87609 | 38196 ft | 441 kts | 278° |
| 2026-04-18 09:42 | 52.96564 | 2.77632 | 38193 ft | 441 kts | 278° |
| 2026-04-18 09:42 | 52.97857 | 2.67627 | 38234 ft | 441 kts | 278° |
| 2026-04-18 09:43 | 52.99135 | 2.57694 | 38205 ft | 443 kts | 278° |
| 2026-04-18 09:43 | 53.00415 | 2.47695 | 38215 ft | 443 kts | 278° |
| 2026-04-18 09:44 | 53.01688 | 2.37674 | 38202 ft | 443 kts | 278° |
| 2026-04-18 09:44 | 53.02959 | 2.27607 | 38197 ft | 443 kts | 278° |
| 2026-04-18 09:45 | 53.04208 | 2.17630 | 38198 ft | 443 kts | 278° |
| 2026-04-18 09:45 | 53.05456 | 2.07587 | 38197 ft | 443 kts | 278° |
| 2026-04-18 09:46 | 53.06688 | 1.97564 | 38203 ft | 443 kts | 278° |
| 2026-04-18 09:46 | 53.07913 | 1.87514 | 38199 ft | 442 kts | 278° |
| 2026-04-18 09:47 | 53.09129 | 1.77470 | 38198 ft | 442 kts | 278° |
| 2026-04-18 09:47 | 53.10330 | 1.67484 | 38198 ft | 442 kts | 277° |
| 2026-04-18 09:48 | 53.11529 | 1.57434 | 38195 ft | 442 kts | 277° |
| 2026-04-18 09:48 | 53.12721 | 1.47365 | 38204 ft | 442 kts | 277° |
| 2026-04-18 09:49 | 53.13894 | 1.37377 | 38202 ft | 442 kts | 277° |
| 2026-04-18 09:49 | 53.15069 | 1.27299 | 38196 ft | 442 kts | 277° |
| 2026-04-18 09:50 | 53.16234 | 1.17234 | 38197 ft | 442 kts | 277° |
| 2026-04-18 09:50 | 53.17392 | 1.07148 | 38198 ft | 442 kts | 277° |
| 2026-04-18 09:51 | 53.18537 | 0.97088 | 38208 ft | 442 kts | 277° |
| 2026-04-18 09:51 | 53.19677 | 0.87006 | 38201 ft | 441 kts | 277° |
| 2026-04-18 09:52 | 53.20798 | 0.77001 | 38194 ft | 441 kts | 277° |
| 2026-04-18 09:52 | 53.21920 | 0.66914 | 38192 ft | 441 kts | 277° |
| 2026-04-18 09:53 | 53.23032 | 0.56823 | 38179 ft | 441 kts | 277° |
| 2026-04-18 09:53 | 53.24136 | 0.46729 | 38187 ft | 441 kts | 277° |
| 2026-04-18 09:54 | 53.25220 | 0.36728 | 38200 ft | 440 kts | 277° |
| 2026-04-18 09:54 | 53.26305 | 0.26646 | 38171 ft | 441 kts | 277° |
| 2026-04-18 09:55 | 53.27384 | 0.16538 | 38164 ft | 441 kts | 276° |
| 2026-04-18 09:55 | 53.28452 | 0.06423 | 38163 ft | 441 kts | 276° |
| 2026-04-18 09:56 | 53.29510 | -0.03677 | 38180 ft | 442 kts | 276° |
| 2026-04-18 09:56 | 53.30558 | -0.13754 | 38174 ft | 443 kts | 276° |
| 2026-04-18 09:57 | 53.31606 | -0.23923 | 38174 ft | 443 kts | 276° |
| 2026-04-18 09:57 | 53.32645 | -0.34096 | 38179 ft | 443 kts | 276° |
| 2026-04-18 09:58 | 53.33675 | -0.44284 | 38166 ft | 443 kts | 276° |
| 2026-04-18 09:58 | 53.34696 | -0.54451 | 38181 ft | 443 kts | 276° |
| 2026-04-18 09:59 | 53.35700 | -0.64575 | 38173 ft | 443 kts | 276° |
| 2026-04-18 10:00 | 53.37206 | -0.79871 | 38173 ft | 443 kts | 276° |
| 2026-04-18 10:00 | 53.38197 | -0.90070 | 38165 ft | 443 kts | 276° |
| 2026-04-18 10:01 | 53.39171 | -1.00188 | 38165 ft | 443 kts | 276° |
| 2026-04-18 10:01 | 53.40144 | -1.10415 | 38161 ft | 447 kts | 276° |
| 2026-04-18 10:02 | 53.41121 | -1.20726 | 38163 ft | 448 kts | 276° |
| 2026-04-18 10:02 | 53.42089 | -1.31059 | 38163 ft | 448 kts | 276° |
| 2026-04-18 10:03 | 53.43048 | -1.41398 | 38176 ft | 448 kts | 276° |
| 2026-04-18 10:03 | 53.43989 | -1.51664 | 38173 ft | 448 kts | 276° |
| 2026-04-18 10:04 | 53.44926 | -1.61999 | 38178 ft | 447 kts | 276° |
| 2026-04-18 10:04 | 53.45858 | -1.72330 | 38175 ft | 447 kts | 276° |
| 2026-04-18 10:05 | 53.46778 | -1.82660 | 38170 ft | 447 kts | 276° |
| 2026-04-18 10:05 | 53.47691 | -1.93006 | 38179 ft | 447 kts | 276° |
| 2026-04-18 10:06 | 53.48588 | -2.03275 | 38172 ft | 447 kts | 276° |
| 2026-04-18 10:06 | 53.49476 | -2.13612 | 38187 ft | 446 kts | 276° |
| 2026-04-18 10:07 | 53.50360 | -2.23938 | 38180 ft | 446 kts | 276° |
| 2026-04-18 10:07 | 53.51233 | -2.34261 | 38178 ft | 446 kts | 276° |
| 2026-04-18 10:08 | 53.52092 | -2.44515 | 38179 ft | 446 kts | 276° |
| 2026-04-18 10:08 | 53.52946 | -2.54842 | 38184 ft | 446 kts | 276° |
| 2026-04-18 10:09 | 53.53790 | -2.65190 | 38188 ft | 447 kts | 276° |
| 2026-04-18 10:09 | 53.54632 | -2.75568 | 38192 ft | 447 kts | 276° |
| 2026-04-18 10:10 | 53.55459 | -2.85880 | 38190 ft | 447 kts | 276° |
| 2026-04-18 10:10 | 53.56283 | -2.96273 | 38191 ft | 447 kts | 276° |
| 2026-04-18 10:11 | 53.57096 | -3.06658 | 38189 ft | 447 kts | 276° |
| 2026-04-18 10:11 | 53.57899 | -3.17037 | 38202 ft | 445 kts | 276° |
| 2026-04-18 10:12 | 53.58689 | -3.27357 | 38194 ft | 444 kts | 276° |
| 2026-04-18 10:12 | 53.59465 | -3.37609 | 38196 ft | 443 kts | 276° |
| 2026-04-18 10:13 | 53.60237 | -3.47927 | 38202 ft | 443 kts | 275° |
| 2026-04-18 10:13 | 53.60998 | -3.58247 | 38209 ft | 443 kts | 275° |
| 2026-04-18 10:14 | 53.61681 | -3.68567 | 38211 ft | 441 kts | 273° |
| 2026-04-18 10:14 | 53.62117 | -3.78798 | 38211 ft | 440 kts | 272° |
| 2026-04-18 10:15 | 53.62536 | -3.89096 | 38215 ft | 440 kts | 272° |
| 2026-04-18 10:15 | 53.62949 | -3.99388 | 38219 ft | 440 kts | 272° |
| 2026-04-18 10:16 | 53.63354 | -4.09689 | 38214 ft | 440 kts | 272° |
| 2026-04-18 10:16 | 53.63749 | -4.19930 | 38225 ft | 440 kts | 272° |
| 2026-04-18 10:17 | 53.64137 | -4.30255 | 38223 ft | 441 kts | 272° |
| 2026-04-18 10:17 | 53.64517 | -4.40578 | 38220 ft | 441 kts | 272° |
| 2026-04-18 10:18 | 53.64889 | -4.50909 | 38217 ft | 441 kts | 272° |
| 2026-04-18 10:18 | 53.65248 | -4.61167 | 38218 ft | 441 kts | 272° |
| 2026-04-18 10:19 | 53.65600 | -4.71514 | 38214 ft | 442 kts | 272° |
| 2026-04-18 10:19 | 53.65944 | -4.81871 | 38229 ft | 442 kts | 272° |
| 2026-04-18 10:20 | 53.66285 | -4.92230 | 38226 ft | 442 kts | 272° |
| 2026-04-18 10:20 | 53.66618 | -5.02586 | 38228 ft | 442 kts | 272° |
| 2026-04-18 10:21 | 53.66937 | -5.12869 | 38228 ft | 442 kts | 272° |
| 2026-04-18 10:21 | 53.67247 | -5.23229 | 38229 ft | 442 kts | 271° |
| 2026-04-18 10:22 | 53.67545 | -5.33641 | 38229 ft | 444 kts | 271° |
| 2026-04-18 10:22 | 53.67833 | -5.44065 | 38229 ft | 444 kts | 271° |
| 2026-04-18 10:23 | 53.68095 | -5.54418 | 38228 ft | 444 kts | 271° |
| 2026-04-18 10:23 | 53.68299 | -5.64852 | 38231 ft | 444 kts | 271° |
| 2026-04-18 10:24 | 53.68493 | -5.75288 | 38235 ft | 444 kts | 271° |
| 2026-04-18 10:24 | 53.68679 | -5.85708 | 38227 ft | 444 kts | 270° |
| 2026-04-18 10:25 | 53.68859 | -5.96142 | 38223 ft | 444 kts | 270° |
| 2026-04-18 10:25 | 53.69029 | -6.06501 | 38227 ft | 444 kts | 270° |
| 2026-04-18 10:26 | 53.69191 | -6.16945 | 38225 ft | 444 kts | 270° |
| 2026-04-18 10:26 | 53.69343 | -6.27380 | 38225 ft | 444 kts | 270° |
| 2026-04-18 10:27 | 53.69485 | -6.37757 | 38226 ft | 445 kts | 270° |
| 2026-04-18 10:27 | 53.69622 | -6.48207 | 38228 ft | 445 kts | 270° |
| 2026-04-18 10:28 | 53.69749 | -6.58664 | 38227 ft | 445 kts | 270° |
| 2026-04-18 10:28 | 53.69866 | -6.69110 | 38226 ft | 445 kts | 270° |
| 2026-04-18 10:29 | 53.69974 | -6.79570 | 38231 ft | 445 kts | 270° |
| 2026-04-18 10:29 | 53.70072 | -6.89952 | 38231 ft | 445 kts | 270° |
| 2026-04-18 10:30 | 53.70162 | -7.00397 | 38233 ft | 445 kts | 270° |
| 2026-04-18 10:30 | 53.70243 | -7.10856 | 38233 ft | 445 kts | 270° |
| 2026-04-18 10:31 | 53.70314 | -7.21301 | 38233 ft | 445 kts | 270° |
| 2026-04-18 10:31 | 53.70377 | -7.31693 | 38230 ft | 445 kts | 270° |
| 2026-04-18 10:32 | 53.70430 | -7.42177 | 38232 ft | 447 kts | 270° |
| 2026-04-18 10:32 | 53.70475 | -7.52683 | 38233 ft | 447 kts | 270° |
| 2026-04-18 10:33 | 53.70510 | -7.63191 | 38232 ft | 447 kts | 270° |
| 2026-04-18 10:33 | 53.70537 | -7.73698 | 38236 ft | 447 kts | 270° |
| 2026-04-18 10:34 | 53.70553 | -7.84138 | 38236 ft | 447 kts | 270° |
| 2026-04-18 10:34 | 53.70560 | -7.94638 | 38242 ft | 447 kts | 270° |
| 2026-04-18 10:35 | 53.70559 | -8.05130 | 38241 ft | 447 kts | 270° |
| 2026-04-18 10:35 | 53.70549 | -8.16020 | 38244 ft | 447 kts | 269° |
| 2026-04-18 10:36 | 53.70529 | -8.26447 | 38241 ft | 447 kts | 269° |
| 2026-04-18 10:36 | 53.70499 | -8.36944 | 38266 ft | 447 kts | 270° |
| 2026-04-18 10:37 | 53.70459 | -8.47450 | 38254 ft | 447 kts | 270° |
| 2026-04-18 10:37 | 53.70413 | -8.57945 | 38258 ft | 447 kts | 270° |
| 2026-04-18 10:38 | 53.70358 | -8.68378 | 38257 ft | 447 kts | 269° |
| 2026-04-18 10:38 | 53.70293 | -8.78883 | 38260 ft | 447 kts | 269° |
| 2026-04-18 10:39 | 53.70217 | -8.89391 | 38252 ft | 447 kts | 269° |
| 2026-04-18 10:39 | 53.70132 | -8.99904 | 38265 ft | 447 kts | 269° |
| 2026-04-18 10:40 | 53.70040 | -9.10342 | 38260 ft | 447 kts | 269° |
| 2026-04-18 10:40 | 53.69938 | -9.20861 | 38271 ft | 447 kts | 269° |
| 2026-04-18 10:41 | 53.69826 | -9.31369 | 38275 ft | 447 kts | 269° |
| 2026-04-18 10:41 | 53.69705 | -9.41895 | 38275 ft | 448 kts | 269° |
| 2026-04-18 10:42 | 53.69573 | -9.52408 | 38287 ft | 448 kts | 269° |
| 2026-04-18 10:42 | 53.69436 | -9.62857 | 38295 ft | 448 kts | 269° |
| 2026-04-18 10:43 | 53.69287 | -9.73394 | 38300 ft | 448 kts | 269° |
| 2026-04-18 10:43 | 53.69129 | -9.83917 | 38315 ft | 448 kts | 269° |
| 2026-04-18 10:44 | 53.68962 | -9.94439 | 38303 ft | 448 kts | 269° |
| 2026-04-18 10:44 | 53.68785 | -10.04877 | 38313 ft | 447 kts | 269° |
| 2026-04-18 10:45 | 53.68601 | -10.15379 | 38317 ft | 447 kts | 269° |
| 2026-04-18 10:45 | 53.68407 | -10.25887 | 38318 ft | 447 kts | 269° |
| 2026-04-18 10:46 | 53.68203 | -10.36392 | 38317 ft | 447 kts | 269° |
| 2026-04-18 10:46 | 53.67990 | -10.46902 | 38288 ft | 447 kts | 269° |
| 2026-04-18 10:47 | 53.67766 | -10.57313 | 38314 ft | 446 kts | 269° |
| 2026-04-18 10:47 | 53.67538 | -10.67789 | 38311 ft | 446 kts | 269° |
| 2026-04-18 10:48 | 53.67299 | -10.78275 | 38309 ft | 446 kts | 269° |
| 2026-04-18 10:48 | 53.67050 | -10.88746 | 38313 ft | 446 kts | 269° |
| 2026-04-18 10:49 | 53.66794 | -10.99148 | 38320 ft | 446 kts | 269° |
| 2026-04-18 10:49 | 53.66527 | -11.09618 | 38325 ft | 446 kts | 269° |
| 2026-04-18 10:50 | 53.66251 | -11.20089 | 38326 ft | 446 kts | 269° |
| 2026-04-18 10:50 | 53.65965 | -11.30559 | 38328 ft | 446 kts | 269° |
| 2026-04-18 10:51 | 53.65673 | -11.40952 | 38328 ft | 446 kts | 269° |
| 2026-04-18 10:51 | 53.65369 | -11.51424 | 38314 ft | 446 kts | 269° |
| 2026-04-18 10:52 | 53.65056 | -11.61852 | 38327 ft | 444 kts | 269° |
| 2026-04-18 10:52 | 53.64736 | -11.72273 | 38333 ft | 444 kts | 268° |
| 2026-04-18 10:53 | 53.64408 | -11.82683 | 38334 ft | 444 kts | 268° |
| 2026-04-18 10:53 | 53.64072 | -11.93010 | 38328 ft | 444 kts | 268° |
| 2026-04-18 10:54 | 53.63725 | -12.03416 | 38319 ft | 444 kts | 268° |
| 2026-04-18 10:54 | 53.63369 | -12.13798 | 38342 ft | 442 kts | 268° |
| 2026-04-18 10:55 | 53.63006 | -12.24152 | 38334 ft | 442 kts | 268° |
| 2026-04-18 10:55 | 53.62633 | -12.34512 | 38333 ft | 442 kts | 268° |
| 2026-04-18 10:56 | 53.62254 | -12.44794 | 38333 ft | 442 kts | 268° |
| 2026-04-18 10:56 | 53.61864 | -12.55151 | 38318 ft | 442 kts | 268° |
| 2026-04-18 10:57 | 53.61466 | -12.65484 | 38330 ft | 441 kts | 268° |
| 2026-04-18 10:57 | 53.61058 | -12.75817 | 38341 ft | 442 kts | 268° |
| 2026-04-18 10:58 | 53.60644 | -12.86090 | 38342 ft | 442 kts | 268° |
| 2026-04-18 10:58 | 53.60218 | -12.96420 | 38344 ft | 441 kts | 268° |
| 2026-04-18 10:59 | 53.59784 | -13.06736 | 38334 ft | 441 kts | 267° |
| 2026-04-18 10:59 | 53.59416 | -13.15334 | 38341 ft | 442 kts | 267° |
| 2026-04-18 11:00 | 53.58890 | -13.27345 | 38345 ft | 442 kts | 267° |
| 2026-04-18 11:00 | 53.58429 | -13.37681 | 38343 ft | 442 kts | 267° |
| 2026-04-18 11:01 | 53.57959 | -13.48015 | 38351 ft | 442 kts | 267° |
| 2026-04-18 11:01 | 53.57561 | -13.56607 | 38343 ft | 442 kts | 267° |
| 2026-04-18 11:02 | 53.56745 | -13.73794 | 38339 ft | 443 kts | 267° |
| 2026-04-18 11:02 | 53.56325 | -13.82461 | 38351 ft | 443 kts | 267° |
| 2026-04-18 11:03 | 53.55818 | -13.92737 | 38353 ft | 443 kts | 267° |
| 2026-04-18 11:03 | 53.55300 | -14.03072 | 38349 ft | 443 kts | 267° |
| 2026-04-18 11:04 | 53.54771 | -14.13419 | 38330 ft | 443 kts | 267° |
| 2026-04-18 11:04 | 53.54233 | -14.23756 | 38341 ft | 443 kts | 267° |
| 2026-04-18 11:05 | 53.53692 | -14.34021 | 38341 ft | 443 kts | 267° |
| 2026-04-18 11:05 | 53.53138 | -14.44350 | 38351 ft | 443 kts | 267° |
| 2026-04-18 11:06 | 53.52575 | -14.54677 | 38346 ft | 443 kts | 266° |
| 2026-04-18 11:06 | 53.52003 | -14.65000 | 38339 ft | 443 kts | 266° |
| 2026-04-18 11:07 | 53.51427 | -14.75233 | 38347 ft | 442 kts | 266° |
| 2026-04-18 11:07 | 53.50838 | -14.85540 | 38347 ft | 442 kts | 266° |
| 2026-04-18 11:08 | 53.50259 | -14.95830 | 38345 ft | 442 kts | 268° |
| 2026-04-18 11:08 | 53.50113 | -15.06149 | 38346 ft | 440 kts | 273° |
| 2026-04-18 11:09 | 53.50309 | -15.16365 | 38337 ft | 440 kts | 274° |
| 2026-04-18 11:09 | 53.50511 | -15.26658 | 38346 ft | 439 kts | 273° |
| 2026-04-18 11:10 | 53.50700 | -15.36928 | 38362 ft | 439 kts | 273° |
| 2026-04-18 11:10 | 53.50880 | -15.47202 | 38349 ft | 439 kts | 273° |
| 2026-04-18 11:11 | 53.51049 | -15.57393 | 38346 ft | 439 kts | 273° |
| 2026-04-18 11:11 | 53.51210 | -15.67668 | 38348 ft | 439 kts | 273° |
| 2026-04-18 11:12 | 53.51363 | -15.77918 | 38340 ft | 439 kts | 273° |
| 2026-04-18 11:12 | 53.51505 | -15.88192 | 38344 ft | 439 kts | 273° |
| 2026-04-18 11:13 | 53.51640 | -15.98457 | 38344 ft | 439 kts | 272° |
| 2026-04-18 11:13 | 53.51764 | -16.08636 | 38344 ft | 439 kts | 272° |
| 2026-04-18 11:14 | 53.51881 | -16.18914 | 38348 ft | 439 kts | 272° |
| 2026-04-18 11:14 | 53.51989 | -16.29183 | 38347 ft | 439 kts | 272° |
| 2026-04-18 11:15 | 53.52088 | -16.39441 | 38346 ft | 439 kts | 272° |
| 2026-04-18 11:15 | 53.52178 | -16.49703 | 38347 ft | 439 kts | 272° |
| 2026-04-18 11:16 | 53.52260 | -16.59897 | 38347 ft | 439 kts | 272° |
| 2026-04-18 11:16 | 53.52333 | -16.70203 | 38347 ft | 439 kts | 272° |
| 2026-04-18 11:17 | 53.52398 | -16.80469 | 38335 ft | 438 kts | 272° |
| 2026-04-18 11:17 | 53.52453 | -16.90720 | 38343 ft | 438 kts | 272° |
| 2026-04-18 11:18 | 53.52499 | -17.00910 | 38347 ft | 438 kts | 272° |
| 2026-04-18 11:18 | 53.52537 | -17.11170 | 38352 ft | 438 kts | 271° |
| 2026-04-18 11:19 | 53.52566 | -17.21416 | 38343 ft | 438 kts | 271° |
| 2026-04-18 11:19 | 53.52586 | -17.31660 | 38333 ft | 438 kts | 271° |
| 2026-04-18 11:20 | 53.52598 | -17.41827 | 38340 ft | 437 kts | 271° |
| 2026-04-18 11:20 | 53.52600 | -17.52071 | 38339 ft | 437 kts | 271° |
| 2026-04-18 11:21 | 53.52594 | -17.62315 | 38339 ft | 437 kts | 271° |